Time;durP1;ratioP1;P1;durP2;ratioP2;P2;SDS_P1;SDS_P2;PMS_P1;PMS_P2;Temp;Humidity;BMP_temperature;BMP_pressure;BME280_temperature;BME280_humidity;BME280_pressure;Samples;Min_cycle;Max_cycle;Signal;HPM_P1;HPM_P2
2023/07/29 00:01:35;;;;;;;1.48;0.30;;;;;;;20.19;88.94;100141.25;7363920;19;20022;-65
2023/07/29 00:04:03;;;;;;;2.47;0.30;;;;;;;20.21;89.36;100139.19;7362810;19;20018;-66
2023/07/29 00:06:31;;;;;;;1.40;0.30;;;;;;;20.20;88.78;100150.91;7366163;19;21758;-67
2023/07/29 00:08:58;;;;;;;1.83;0.40;;;;;;;20.18;89.52;100148.47;7360136;19;20393;-66
2023/07/29 00:11:25;;;;;;;1.63;0.40;;;;;;;20.16;89.50;100155.09;7365374;19;20514;-66
2023/07/29 00:13:52;;;;;;;1.88;0.40;;;;;;;20.10;89.46;100145.34;7363763;19;20021;-67
2023/07/29 00:16:25;;;;;;;0.82;0.40;;;;;;;20.08;89.59;100151.72;7363251;19;20035;-66
2023/07/29 00:18:52;;;;;;;1.33;0.30;;;;;;;20.08;90.11;100154.38;7359348;19;20063;-67
2023/07/29 00:21:19;;;;;;;2.20;0.40;;;;;;;20.04;89.54;100150.56;7363212;19;20014;-68
2023/07/29 00:23:46;;;;;;;2.70;0.40;;;;;;;20.05;90.08;100154.84;7361762;19;20015;-65
2023/07/29 00:26:13;;;;;;;1.08;0.30;;;;;;;20.02;89.79;100147.28;7361909;19;20007;-65
2023/07/29 00:28:40;;;;;;;0.75;0.30;;;;;;;20.00;89.62;100138.72;7363825;19;20526;-65
2023/07/29 00:31:07;;;;;;;2.22;0.30;;;;;;;19.99;89.49;100146.94;7364596;19;20028;-67
2023/07/29 00:33:34;;;;;;;16.00;9.43;;;;;;;19.94;89.37;100133.47;7362881;19;20010;-66
2023/07/29 00:36:02;;;;;;;2.33;0.82;;;;;;;19.92;89.94;100144.38;7365494;19;20015;-68
2023/07/29 00:38:29;;;;;;;3.10;0.50;;;;;;;19.89;89.55;100139.50;7361925;19;20018;-67
2023/07/29 00:41:02;;;;;;;1.25;0.40;;;;;;;19.89;89.03;100136.03;7360955;19;20028;-66
2023/07/29 00:43:29;;;;;;;;;;;;;;;19.83;88.16;100132.41;7364543;19;20602;-67
2023/07/29 00:45:57;;;;;;;2.00;0.40;;;;;;;19.80;88.19;100129.41;7363754;19;19915;-67
2023/07/29 00:48:25;;;;;;;1.55;0.40;;;;;;;19.81;87.80;100145.16;7361377;19;20023;-66
2023/07/29 00:50:54;;;;;;;1.67;0.50;;;;;;;19.75;87.62;100146.09;7362090;19;20014;-66
2023/07/29 00:53:21;;;;;;;3.25;0.50;;;;;;;19.76;86.92;100145.03;7363242;19;20018;-68
2023/07/29 00:55:48;;;;;;;3.38;0.47;;;;;;;19.71;86.71;100146.81;7357800;19;20029;-66
2023/07/29 00:58:15;;;;;;;2.95;0.40;;;;;;;19.69;86.01;100135.53;7366544;19;20027;-67
2023/07/29 01:00:43;;;;;;;2.10;0.50;;;;;;;19.69;85.35;100148.88;7362968;19;20019;-66
2023/07/29 01:03:10;;;;;;;4.28;1.20;;;;;;;19.67;85.67;100148.28;7360359;19;21023;-67
2023/07/29 01:05:50;;;;;;;0.70;0.40;;;;;;;19.62;84.69;100148.97;7363694;19;20029;-66
2023/07/29 01:08:39;;;;;;;3.17;0.50;;;;;;;19.63;86.36;100148.75;7365642;19;20027;-66
2023/07/29 01:11:46;;;;;;;1.80;0.40;;;;;;;19.68;86.71;100145.38;7357049;19;20019;-67
2023/07/29 01:14:28;;;;;;;2.85;0.50;;;;;;;19.72;85.27;100143.06;7357370;19;20602;-67
2023/07/29 01:17:03;;;;;;;2.30;0.60;;;;;;;19.68;84.69;100139.22;7359879;19;20421;-67
2023/07/29 01:20:02;;;;;;;3.17;0.50;;;;;;;19.64;84.64;100138.88;7358378;19;21129;-68
2023/07/29 01:22:30;;;;;;;1.95;0.60;;;;;;;19.55;84.19;100137.59;7360990;19;20564;-66
2023/07/29 01:24:59;;;;;;;2.75;0.60;;;;;;;19.58;85.04;100137.94;7356579;19;20021;-67
2023/07/29 01:27:26;;;;;;;1.75;0.60;;;;;;;19.63;85.25;100142.59;7363810;19;20633;-67
2023/07/29 01:29:55;;;;;;;1.90;0.60;;;;;;;19.58;84.72;100127.25;7360304;19;20022;-67
2023/07/29 01:32:31;;;;;;;1.30;0.50;;;;;;;19.60;84.80;100135.06;7362306;19;20010;-67
2023/07/29 01:35:11;;;;;;;2.38;0.50;;;;;;;19.61;84.60;100123.31;7360934;19;20062;-67
2023/07/29 01:37:39;;;;;;;2.22;0.90;;;;;;;19.60;84.31;100132.38;7361877;19;20021;-67
2023/07/29 01:40:08;;;;;;;4.72;0.50;;;;;;;19.55;84.77;100129.59;7355746;19;20044;-67
2023/07/29 01:42:36;;;;;;;1.35;0.57;;;;;;;19.51;85.07;100123.88;7360235;19;20011;-67
2023/07/29 01:45:04;;;;;;;2.28;0.60;;;;;;;19.54;85.12;100119.94;7361222;19;20394;-65
2023/07/29 01:47:32;;;;;;;2.97;0.60;;;;;;;19.54;84.74;100119.94;7362066;19;20013;-69
2023/07/29 01:49:59;;;;;;;2.22;0.60;;;;;;;19.51;85.11;100120.38;7355399;19;20037;-71
2023/07/29 01:52:26;;;;;;;4.38;0.98;;;;;;;19.56;85.72;100120.50;7359753;19;20016;-65
2023/07/29 01:54:53;;;;;;;1.88;0.80;;;;;;;19.53;85.42;100123.66;7358284;19;20016;-66
2023/07/29 01:57:20;;;;;;;3.03;0.70;;;;;;;19.51;85.17;100120.38;7360639;19;20046;-67
2023/07/29 01:59:47;;;;;;;3.35;0.80;;;;;;;19.51;84.96;100121.19;7361039;19;20580;-67
2023/07/29 02:02:13;;;;;;;3.22;0.82;;;;;;;19.51;84.96;100117.72;7358294;19;20007;-67
2023/07/29 02:04:41;;;;;;;4.32;0.70;;;;;;;19.47;84.51;100119.22;7359864;19;20102;-66
2023/07/29 02:07:08;;;;;;;3.65;1.02;;;;;;;19.39;85.00;100117.69;7362020;19;21812;-66
2023/07/29 02:09:35;;;;;;;2.50;0.60;;;;;;;19.43;85.99;100121.50;7354639;19;20615;-66
2023/07/29 02:12:02;;;;;;;2.88;0.73;;;;;;;19.45;85.79;100111.47;7361278;19;20110;-67
2023/07/29 02:14:29;;;;;;;3.63;0.68;;;;;;;19.48;85.46;100132.34;7360660;19;21770;-67
2023/07/29 02:16:56;;;;;;;5.50;0.70;;;;;;;19.49;85.92;100128.63;7361123;19;20057;-67
2023/07/29 02:19:23;;;;;;;1.63;0.60;;;;;;;19.49;85.62;100123.31;7356256;19;20055;-67
2023/07/29 02:21:51;;;;;;;5.85;1.05;;;;;;;19.51;86.07;100129.22;7357665;19;20018;-65
2023/07/29 02:24:18;;;;;;;3.20;1.27;;;;;;;19.53;86.23;100135.16;7349017;19;20017;-67
2023/07/29 02:26:45;;;;;;;3.33;0.70;;;;;;;19.53;86.09;100134.31;7361214;19;21171;-65
2023/07/29 02:29:12;;;;;;;7.43;2.55;;;;;;;19.52;85.61;100124.69;7361136;19;20082;-66
2023/07/29 02:31:39;;;;;;;3.63;1.08;;;;;;;19.55;85.53;100127.72;7359814;19;20043;-66
2023/07/29 02:34:06;;;;;;;3.03;0.70;;;;;;;19.54;85.17;100119.94;7358973;19;20940;-66
2023/07/29 02:36:33;;;;;;;2.55;1.02;;;;;;;19.55;85.80;100121.56;7360959;19;20116;-66
2023/07/29 02:39:00;;;;;;;2.38;0.82;;;;;;;19.54;86.13;100118.09;7353826;19;20018;-67
2023/07/29 02:41:27;;;;;;;3.85;0.70;;;;;;;19.54;87.20;100112.75;7359936;19;20520;-66
2023/07/29 02:43:54;;;;;;;3.63;0.70;;;;;;;19.55;87.60;100103.72;7358537;19;20014;-66
2023/07/29 02:46:21;;;;;;;3.80;0.70;;;;;;;19.54;87.88;100114.59;7360367;19;20014;-66
2023/07/29 02:48:50;;;;;;;5.90;0.73;;;;;;;19.50;88.29;100103.59;7359188;19;20026;-66
2023/07/29 02:51:17;;;;;;;1.85;0.70;;;;;;;19.44;88.16;100104.50;7360421;19;20106;-67
2023/07/29 02:53:44;;;;;;;5.03;0.80;;;;;;;19.34;88.34;100119.41;7357084;19;20098;-66
2023/07/29 02:56:11;;;;;;;4.85;1.40;;;;;;;19.29;89.53;100116.59;7356384;19;20815;-66
2023/07/29 02:58:38;;;;;;;4.80;0.88;;;;;;;19.30;90.23;100115.56;7358557;19;20218;-67
2023/07/29 03:01:06;;;;;;;3.67;1.00;;;;;;;19.28;90.54;100110.44;7359581;19;20842;-67
2023/07/29 03:03:33;;;;;;;3.30;0.85;;;;;;;19.27;89.99;100116.00;7358719;19;20097;-66
2023/07/29 03:06:06;;;;;;;5.63;1.02;;;;;;;19.22;90.21;100114.84;7359854;19;20138;-67
2023/07/29 03:08:33;;;;;;;4.60;0.95;;;;;;;19.21;90.69;100120.38;7355327;19;20033;-67
2023/07/29 03:11:13;;;;;;;3.35;0.90;;;;;;;19.18;91.03;100116.31;7356629;19;20583;-66
2023/07/29 03:13:40;;;;;;;3.55;1.00;;;;;;;19.20;91.47;100113.41;7355262;19;20998;-66
2023/07/29 03:16:12;;;;;;;5.95;0.80;;;;;;;19.17;91.45;100114.69;7357108;19;20068;-66
2023/07/29 03:18:40;;;;;;;5.45;1.27;;;;;;;19.18;91.44;100110.19;7357704;19;20018;-67
2023/07/29 03:21:08;;;;;;;7.65;1.88;;;;;;;19.15;91.39;100106.09;7354020;19;20014;-66
2023/07/29 03:23:36;;;;;;;4.65;1.20;;;;;;;19.17;91.67;100111.22;7355737;19;20025;-68
2023/07/29 03:26:10;;;;;;;4.80;1.40;;;;;;;19.17;92.18;100106.69;7356556;19;20014;-66
2023/07/29 03:28:39;;;;;;;4.43;1.10;;;;;;;19.15;92.18;100108.75;7358772;19;20081;-66
2023/07/29 03:31:07;;;;;;;4.57;0.75;;;;;;;19.12;91.61;100108.41;7357863;19;20747;-66
2023/07/29 03:33:34;;;;;;;4.10;0.90;;;;;;;19.10;92.32;100113.97;7358934;19;20021;-67
2023/07/29 03:36:02;;;;;;;8.88;1.17;;;;;;;19.12;92.62;100116.41;7360037;19;20007;-66
2023/07/29 03:38:29;;;;;;;4.72;1.30;;;;;;;19.11;93.12;100114.78;7362840;19;20094;-67
2023/07/29 03:40:56;;;;;;;4.32;1.10;;;;;;;19.12;93.40;100125.22;7362193;19;20014;-67
2023/07/29 03:43:23;;;;;;;4.90;0.95;;;;;;;19.16;93.59;100125.59;7361056;19;20683;-67
2023/07/29 03:45:51;;;;;;;3.28;1.00;;;;;;;19.12;93.56;100119.91;7365355;19;20014;-67
2023/07/29 03:48:18;;;;;;;7.95;1.95;;;;;;;19.09;93.67;100116.88;7366674;19;20098;-66
2023/07/29 03:50:45;;;;;;;5.75;1.75;;;;;;;19.06;93.93;100112.78;7365536;19;20623;-66
2023/07/29 03:53:16;;;;;;;4.97;0.75;;;;;;;19.04;93.67;100122.06;7365673;19;20018;-67
2023/07/29 03:55:44;;;;;;;2.50;0.83;;;;;;;19.02;94.18;100122.28;7362642;19;20019;-68
2023/07/29 03:58:12;;;;;;;3.97;1.40;;;;;;;19.00;94.31;100118.19;7367214;19;20110;-67
2023/07/29 04:00:39;;;;;;;5.57;1.15;;;;;;;18.97;94.59;100116.00;7363485;19;20471;-66
2023/07/29 04:03:09;;;;;;;4.68;1.35;;;;;;;18.96;94.37;100131.19;7363794;19;20030;-65
2023/07/29 04:05:36;;;;;;;4.32;0.95;;;;;;;18.96;94.62;100123.19;7364244;19;20398;-66
2023/07/29 04:08:04;;;;;;;6.25;1.10;;;;;;;18.91;94.34;100127.56;7364987;19;20035;-65
2023/07/29 04:10:31;;;;;;;5.80;1.15;;;;;;;18.92;94.51;100132.69;7360055;19;20869;-70
2023/07/29 04:12:58;;;;;;;4.93;1.40;;;;;;;18.89;94.55;100129.66;7361147;19;20383;-66
2023/07/29 04:15:25;;;;;;;4.45;0.90;;;;;;;18.83;94.39;100134.03;7362745;19;20093;-66
2023/07/29 04:17:52;;;;;;;6.35;1.52;;;;;;;18.83;94.33;100127.88;7363709;19;20032;-67
2023/07/29 04:20:19;;;;;;;3.63;0.90;;;;;;;18.84;94.32;100129.50;7362276;19;20030;-66
2023/07/29 04:22:46;;;;;;;9.15;2.35;;;;;;;18.80;94.22;100139.78;7359097;19;20014;-66
2023/07/29 04:25:13;;;;;;;3.95;0.88;;;;;;;18.82;95.13;100129.72;7359006;19;20022;-66
2023/07/29 04:27:40;;;;;;;4.75;1.33;;;;;;;18.86;94.77;100127.41;7365262;19;20026;-67
2023/07/29 04:30:08;;;;;;;7.20;1.30;;;;;;;18.85;94.84;100123.94;7363350;19;20022;-66
2023/07/29 04:32:35;;;;;;;3.63;0.90;;;;;;;18.86;94.60;100120.25;7364955;19;20010;-65
2023/07/29 04:35:03;;;;;;;3.92;1.00;;;;;;;18.86;94.37;100122.91;7360931;19;20011;-66
2023/07/29 04:37:29;;;;;;;5.35;0.98;;;;;;;18.85;94.56;100113.28;7362103;19;20017;-67
2023/07/29 04:39:56;;;;;;;7.55;1.35;;;;;;;18.80;94.21;100108.63;7356817;19;20018;-66
2023/07/29 04:42:23;;;;;;;4.85;0.90;;;;;;;18.80;94.25;100108.63;7360741;19;20018;-66
2023/07/29 04:44:50;;;;;;;4.80;1.45;;;;;;;18.77;94.31;100118.91;7363009;19;21077;-66
2023/07/29 04:47:17;;;;;;;4.85;1.38;;;;;;;18.77;94.34;100119.75;7363334;19;20026;-67
2023/07/29 04:49:44;;;;;;;5.63;1.30;;;;;;;18.76;94.13;100107.44;7364013;19;20059;-66
2023/07/29 04:52:12;;;;;;;4.35;1.20;;;;;;;18.78;94.21;100110.72;7364370;19;20026;-65
2023/07/29 04:54:39;;;;;;;4.90;1.13;;;;;;;18.81;94.16;100117.44;7358690;19;21004;-66
2023/07/29 04:57:06;;;;;;;4.90;1.05;;;;;;;18.82;93.96;100120.91;7362366;19;20018;-66
2023/07/29 04:59:33;;;;;;;6.57;1.65;;;;;;;18.81;93.35;100125.44;7359718;19;20015;-66
2023/07/29 05:02:00;;;;;;;3.05;1.13;;;;;;;18.77;93.16;100121.59;7361852;19;20089;-67
2023/07/29 05:04:27;;;;;;;6.15;1.02;;;;;;;18.76;93.78;100130.63;7358421;19;20558;-65
2023/07/29 05:06:54;;;;;;;9.75;4.47;;;;;;;18.76;94.35;100119.94;7361175;19;20609;-66
2023/07/29 05:09:21;;;;;;;6.82;1.10;;;;;;;18.78;94.74;100110.72;7357201;19;20038;-66
2023/07/29 05:11:48;;;;;;;5.45;1.05;;;;;;;18.81;94.51;100114.75;7363759;19;20559;-67
2023/07/29 05:14:17;;;;;;;4.53;1.00;;;;;;;18.82;94.32;100110.25;7361346;19;20028;-67
2023/07/29 05:16:44;;;;;;;5.72;1.15;;;;;;;18.78;93.77;100108.03;7364448;19;20590;-66
2023/07/29 05:19:12;;;;;;;7.55;1.48;;;;;;;18.81;94.24;100106.75;7361471;19;20014;-66
2023/07/29 05:21:39;;;;;;;9.73;3.45;;;;;;;18.83;94.02;100112.69;7360442;19;20035;-67
2023/07/29 05:24:06;;;;;;;4.53;1.63;;;;;;;18.84;94.10;100103.66;7356728;19;20879;-67
2023/07/29 05:26:33;;;;;;;8.88;1.33;;;;;;;18.84;93.83;100097.53;7363247;19;20025;-66
2023/07/29 05:29:01;;;;;;;4.13;1.30;;;;;;;18.87;93.91;100095.22;7361697;19;20023;-67
2023/07/29 05:31:29;;;;;;;5.65;1.30;;;;;;;18.89;93.46;100097.66;7361834;19;20049;-67
2023/07/29 05:33:56;;;;;;;9.68;2.15;;;;;;;18.86;93.58;100116.75;7360704;19;20035;-66
2023/07/29 05:36:24;;;;;;;7.20;2.70;;;;;;;18.89;94.00;100109.13;7361765;19;20364;-66
2023/07/29 05:38:52;;;;;;;6.40;1.65;;;;;;;18.89;94.16;100119.81;7356586;19;20035;-66
2023/07/29 05:41:19;;;;;;;3.67;1.50;;;;;;;18.89;93.59;100121.66;7362049;19;20014;-65
2023/07/29 05:43:46;;;;;;;6.72;1.33;;;;;;;18.91;93.45;100125.72;7360376;19;20014;-66
2023/07/29 05:46:13;;;;;;;7.25;1.80;;;;;;;18.88;93.22;100128.84;7361627;19;20134;-66
2023/07/29 05:48:40;;;;;;;3.90;1.30;;;;;;;18.86;93.28;100119.41;7362906;19;20034;-66
2023/07/29 05:51:07;;;;;;;6.38;1.67;;;;;;;18.86;94.49;100122.91;7361336;19;20014;-66
2023/07/29 05:53:35;;;;;;;5.68;1.50;;;;;;;18.89;94.55;100114.47;7359595;19;20045;-66
2023/07/29 05:56:02;;;;;;;4.82;1.45;;;;;;;18.87;93.84;100118.38;7358003;19;20014;-66
2023/07/29 05:58:31;;;;;;;5.78;1.55;;;;;;;18.86;93.04;100114.09;7358843;19;20025;-67
2023/07/29 06:00:58;;;;;;;3.78;1.17;;;;;;;18.89;93.30;100125.13;7360330;19;20019;-66
2023/07/29 06:03:25;;;;;;;3.17;1.13;;;;;;;18.89;92.65;100132.31;7358628;19;20010;-66
2023/07/29 06:05:53;;;;;;;4.80;1.55;;;;;;;18.91;92.93;100131.03;7360624;19;20014;-66
2023/07/29 06:08:20;;;;;;;4.55;1.63;;;;;;;18.94;92.78;100129.78;7359048;19;20031;-66
2023/07/29 06:10:47;;;;;;;4.43;1.15;;;;;;;18.97;92.76;100132.00;7356677;19;20015;-67
2023/07/29 06:13:14;;;;;;;6.65;1.55;;;;;;;18.99;92.37;100135.28;7360656;19;20572;-67
2023/07/29 06:15:41;;;;;;;5.65;1.15;;;;;;;19.02;92.46;100132.13;7358749;19;20014;-67
2023/07/29 06:18:09;;;;;;;5.82;1.35;;;;;;;19.03;92.35;100125.78;7361360;19;20482;-67
2023/07/29 06:20:36;;;;;;;5.75;1.30;;;;;;;19.06;92.59;100125.31;7356988;19;20015;-72
2023/07/29 06:23:03;;;;;;;5.32;1.10;;;;;;;19.06;92.64;100126.13;7358140;19;20031;-68
2023/07/29 06:25:31;;;;;;;5.90;1.25;;;;;;;19.05;92.08;100126.34;7349932;19;20042;-67
2023/07/29 06:27:58;;;;;;;4.85;1.63;;;;;;;19.06;92.15;100131.47;7360812;19;20097;-66
2023/07/29 06:30:25;;;;;;;5.13;1.67;;;;;;;19.07;91.77;100127.75;7358020;19;20025;-66
2023/07/29 06:32:52;;;;;;;4.90;0.85;;;;;;;19.09;91.77;100133.69;7360700;19;20052;-66
2023/07/29 06:35:19;;;;;;;4.53;1.17;;;;;;;19.09;91.57;100140.88;7357340;19;20014;-67
2023/07/29 06:37:46;;;;;;;3.80;1.30;;;;;;;19.09;91.39;100136.38;7359925;19;20685;-66
2023/07/29 06:40:13;;;;;;;3.40;1.05;;;;;;;19.16;91.24;100138.91;7356064;19;20534;-68
2023/07/29 06:42:40;;;;;;;5.60;0.90;;;;;;;19.23;90.94;100140.47;7359043;19;20014;-65
2023/07/29 06:45:08;;;;;;;5.65;0.90;;;;;;;19.27;90.25;100140.00;7354122;19;20467;-65
2023/07/29 06:47:35;;;;;;;6.82;1.08;;;;;;;19.27;89.85;100145.34;7361002;19;20014;-65
2023/07/29 06:50:02;;;;;;;4.18;1.23;;;;;;;19.33;91.03;100139.94;7356552;19;20038;-66
2023/07/29 06:52:29;;;;;;;3.67;0.85;;;;;;;19.31;89.69;100139.31;7359854;19;20053;-66
2023/07/29 06:54:56;;;;;;;3.95;0.90;;;;;;;19.30;89.69;100142.25;7355887;19;20015;-67
2023/07/29 06:57:23;;;;;;;7.40;1.10;;;;;;;19.26;89.26;100135.72;7357289;19;20439;-66
2023/07/29 06:59:50;;;;;;;6.97;1.02;;;;;;;19.26;89.10;100146.38;7358273;19;20093;-67
2023/07/29 07:02:17;;;;;;;3.50;0.90;;;;;;;19.26;89.08;100133.84;7360041;19;20098;-66
2023/07/29 07:04:45;;;;;;;3.05;0.70;;;;;;;19.30;89.17;100134.25;7356425;19;20018;-67
2023/07/29 07:07:12;;;;;;;3.63;0.70;;;;;;;19.35;89.11;100135.16;7355497;19;20487;-66
2023/07/29 07:09:39;;;;;;;2.28;0.77;;;;;;;19.35;88.40;100145.84;7355275;19;20025;-67
2023/07/29 07:12:06;;;;;;;4.97;0.60;;;;;;;19.37;88.45;100148.28;7366624;19;20022;-66
2023/07/29 07:14:33;;;;;;;2.35;0.60;;;;;;;19.31;88.06;100143.84;7364276;19;20015;-67
2023/07/29 07:17:00;;;;;;;2.50;0.50;;;;;;;19.30;89.26;100152.91;7366842;19;20054;-66
2023/07/29 07:19:27;;;;;;;2.75;0.85;;;;;;;19.33;90.30;100157.78;7364641;19;20032;-67
2023/07/29 07:21:54;;;;;;;4.00;0.85;;;;;;;19.32;89.96;100151.63;7367422;19;20590;-67
2023/07/29 07:24:22;;;;;;;2.28;0.63;;;;;;;19.34;90.04;100156.75;7358104;19;20015;-67
2023/07/29 07:26:49;;;;;;;3.35;0.60;;;;;;;19.34;90.02;100151.41;7361974;19;20123;-67
2023/07/29 07:29:16;;;;;;;3.40;0.60;;;;;;;19.33;90.36;100147.94;7363957;19;20094;-66
2023/07/29 07:31:51;;;;;;;3.55;0.80;;;;;;;19.32;91.18;100154.31;7367172;19;20021;-67
2023/07/29 07:34:33;;;;;;;3.35;0.70;;;;;;;19.37;92.45;100159.78;7362339;19;20085;-66
2023/07/29 07:37:00;;;;;;;1.63;0.60;;;;;;;19.39;93.00;100149.69;7366940;19;20094;-69
2023/07/29 07:39:27;;;;;;;2.17;0.52;;;;;;;19.39;93.10;100164.91;7357670;19;20022;-67
2023/07/29 07:41:55;;;;;;;0.90;0.40;;;;;;;19.33;92.63;100160.47;7363863;19;20014;-66
2023/07/29 07:44:22;;;;;;;2.80;0.60;;;;;;;19.24;93.13;100159.97;7360642;19;20019;-67
2023/07/29 07:46:50;;;;;;;1.73;0.85;;;;;;;19.23;94.43;100155.66;7363883;19;20019;-67
2023/07/29 07:49:17;;;;;;;2.80;0.70;;;;;;;19.18;94.57;100147.53;7358718;19;20659;-66
2023/07/29 07:51:44;;;;;;;4.30;0.52;;;;;;;19.17;94.55;100151.22;7367043;19;20018;-67
2023/07/29 07:54:11;;;;;;;4.07;0.60;;;;;;;19.13;94.50;100145.53;7356020;19;20022;-67
2023/07/29 07:56:38;;;;;;;2.47;0.50;;;;;;;19.13;94.28;100148.19;7364105;19;20014;-68
2023/07/29 07:59:06;;;;;;;3.55;0.68;;;;;;;19.15;94.62;100150.63;7363922;19;20006;-67
2023/07/29 08:01:37;;;;;;;3.90;0.70;;;;;;;19.12;94.79;100149.22;7366546;19;20051;-67
2023/07/29 08:04:05;;;;;;;3.42;0.68;;;;;;;19.15;95.33;100156.78;7361319;19;20018;-67
2023/07/29 08:06:33;;;;;;;2.85;0.80;;;;;;;19.21;95.89;100155.06;7365742;19;20029;-67
2023/07/29 08:09:00;;;;;;;2.25;0.60;;;;;;;19.22;95.85;100154.03;7361246;19;21048;-66
2023/07/29 08:11:27;;;;;;;4.88;0.85;;;;;;;19.25;95.60;100155.44;7361535;19;20050;-66
2023/07/29 08:13:54;;;;;;;2.47;0.50;;;;;;;19.25;95.29;100150.91;7362221;19;20038;-67
2023/07/29 08:16:21;;;;;;;3.58;0.70;;;;;;;19.30;95.11;100151.03;7365545;19;20821;-67
2023/07/29 08:18:48;;;;;;;3.67;0.60;;;;;;;19.34;95.18;100141.56;7360605;19;20402;-67
2023/07/29 08:21:15;;;;;;;1.50;0.50;;;;;;;19.44;94.58;100135.66;7364092;19;20018;-69
2023/07/29 08:23:42;;;;;;;5.05;0.80;;;;;;;19.51;94.15;100145.22;7361361;19;20018;-71
2023/07/29 08:26:09;;;;;;;3.58;0.52;;;;;;;19.54;93.34;100143.97;7358832;19;20123;-68
2023/07/29 08:28:38;;;;;;;3.03;0.65;;;;;;;19.60;93.06;100135.06;7364227;19;20010;-67
2023/07/29 08:31:06;;;;;;;1.92;0.60;;;;;;;19.70;93.10;100134.50;7363823;19;20018;-67
2023/07/29 08:33:34;;;;;;;1.63;0.77;;;;;;;19.75;92.09;100126.59;7364965;19;20014;-67
2023/07/29 08:36:02;;;;;;;1.33;0.40;;;;;;;19.78;91.26;100126.13;7365049;19;20059;-66
2023/07/29 08:38:29;;;;;;;2.30;0.40;;;;;;;19.82;90.23;100129.97;7362114;19;20047;-68
2023/07/29 08:41:10;;;;;;;1.45;0.28;;;;;;;19.79;88.78;100135.78;7361726;19;21610;-67
2023/07/29 08:43:39;;;;;;;1.58;0.50;;;;;;;19.82;88.56;100137.97;7361606;19;20633;-67
2023/07/29 08:46:07;;;;;;;1.52;0.30;;;;;;;19.86;89.52;100133.81;7362927;19;20009;-66
2023/07/29 08:48:41;;;;;;;1.75;0.65;;;;;;;19.91;89.71;100137.41;7362510;19;20439;-66
2023/07/29 08:51:09;;;;;;;1.33;0.30;;;;;;;19.88;87.86;100139.72;7361306;19;20018;-66
2023/07/29 08:53:38;;;;;;;3.67;0.52;;;;;;;19.86;87.87;100131.94;7360246;19;20024;-67
2023/07/29 08:56:06;;;;;;;1.85;0.50;;;;;;;19.84;87.39;100131.38;7357999;19;20010;-68
2023/07/29 08:58:35;;;;;;;2.70;0.70;;;;;;;19.88;87.62;100132.53;7360298;19;20319;-69
2023/07/29 09:01:02;;;;;;;1.25;0.40;;;;;;;19.91;87.11;100140.06;7362726;19;20155;-67
2023/07/29 09:03:29;;;;;;;3.35;0.40;;;;;;;20.00;87.64;100136.03;7362135;19;20022;-66
2023/07/29 09:05:58;;;;;;;1.90;0.40;;;;;;;20.03;86.19;100134.75;7362891;19;20021;-67
2023/07/29 09:08:28;;;;;;;2.15;0.70;;;;;;;20.11;86.24;100137.09;7359891;19;20029;-66
2023/07/29 09:10:56;;;;;;;2.72;0.52;;;;;;;20.26;86.31;100136.63;7357015;19;20556;-66
2023/07/29 09:13:23;;;;;;;2.13;0.50;;;;;;;20.34;86.04;100138.97;7360504;19;20025;-65
2023/07/29 09:15:56;;;;;;;2.72;0.40;;;;;;;20.36;85.62;100140.38;7360028;19;20044;-65
2023/07/29 09:18:23;;;;;;;3.17;0.50;;;;;;;20.34;84.79;100144.31;7362626;19;20040;-67
2023/07/29 09:20:50;;;;;;;3.85;0.60;;;;;;;20.34;84.81;100144.31;7359216;19;20018;-67
2023/07/29 09:23:17;;;;;;;2.40;0.50;;;;;;;20.33;85.02;100138.16;7358331;19;20502;-66
2023/07/29 09:25:47;;;;;;;2.17;0.47;;;;;;;20.31;84.19;100147.47;7355720;19;21080;-66
2023/07/29 09:28:16;;;;;;;2.42;0.70;;;;;;;20.36;83.97;100150.25;7358528;19;20015;-66
2023/07/29 09:30:46;;;;;;;4.45;0.50;;;;;;;20.38;83.71;100156.16;7358566;19;20060;-67
2023/07/29 09:33:18;;;;;;;2.45;0.50;;;;;;;20.48;83.47;100156.38;7360678;19;20129;-68
2023/07/29 09:35:46;;;;;;;2.90;0.52;;;;;;;20.60;83.78;100145.69;7359812;19;20014;-66
2023/07/29 09:38:15;;;;;;;2.15;0.40;;;;;;;20.63;83.05;100146.00;7358714;19;20015;-65
2023/07/29 09:40:45;;;;;;;1.90;0.60;;;;;;;20.60;82.85;100151.84;7360016;19;20518;-68
2023/07/29 09:43:19;;;;;;;1.90;0.60;;;;;;;20.61;81.80;100136.63;7360106;19;20006;-66
2023/07/29 09:45:46;;;;;;;2.35;0.40;;;;;;;20.65;79.75;100141.25;7358933;19;20011;-66
2023/07/29 09:48:13;;;;;;;5.55;0.45;;;;;;;20.70;76.62;100140.53;7358567;19;20019;-67
2023/07/29 09:50:41;;;;;;;2.50;0.47;;;;;;;20.77;76.06;100146.59;7358538;19;20018;-66
2023/07/29 09:53:14;;;;;;;3.20;0.50;;;;;;;20.92;75.64;100150.38;7361711;19;20025;-66
2023/07/29 09:55:47;;;;;;;0.98;0.40;;;;;;;21.04;74.47;100150.31;7356769;19;20018;-67
2023/07/29 09:58:25;;;;;;;3.72;0.40;;;;;;;21.08;74.55;100146.13;7357813;19;20014;-65
2023/07/29 10:00:52;;;;;;;3.15;0.40;;;;;;;21.14;74.33;100157.75;7360216;19;20023;-66
2023/07/29 10:03:22;;;;;;;2.70;0.40;;;;;;;21.15;74.07;100154.84;7360378;19;20090;-66
2023/07/29 10:05:49;;;;;;;5.55;0.95;;;;;;;21.10;73.50;100154.72;7359491;19;20013;-66
2023/07/29 10:08:17;;;;;;;2.50;0.50;;;;;;;21.11;73.15;100160.91;7361799;19;20014;-66
2023/07/29 10:10:45;;;;;;;2.38;0.50;;;;;;;21.20;73.71;100157.63;7355018;19;20021;-66
2023/07/29 10:13:12;;;;;;;3.55;0.50;;;;;;;21.21;72.46;100156.59;7359404;19;20003;-66
2023/07/29 10:15:40;;;;;;;2.55;0.50;;;;;;;21.31;71.27;100164.00;7359072;19;20634;-67
2023/07/29 10:18:07;;;;;;;3.35;0.40;;;;;;;21.44;69.90;100155.66;7361906;19;20025;-66
2023/07/29 10:20:35;;;;;;;1.80;0.40;;;;;;;21.52;68.76;100151.78;7359145;19;21742;-66
2023/07/29 10:23:11;;;;;;;1.95;0.40;;;;;;;21.54;67.93;100149.66;7361432;19;20395;-67
2023/07/29 10:25:43;;;;;;;2.97;0.50;;;;;;;21.56;69.76;100147.56;7353299;19;20017;-67
2023/07/29 10:28:12;;;;;;;2.28;0.50;;;;;;;21.62;69.59;100150.09;7356570;19;20002;-68
2023/07/29 10:30:39;;;;;;;2.47;0.50;;;;;;;21.71;69.51;100148.66;7357608;19;20439;-67
2023/07/29 10:33:06;;;;;;;3.35;0.70;;;;;;;21.87;69.91;100140.84;7361271;19;20040;-67
2023/07/29 10:35:42;;;;;;;3.95;0.50;;;;;;;21.99;69.02;100146.97;7358353;19;20050;-66
2023/07/29 10:38:10;;;;;;;1.98;0.50;;;;;;;22.13;67.99;100140.22;7358086;19;21853;-66
2023/07/29 10:41:03;;;;;;;3.35;0.60;;;;;;;22.20;67.73;100145.44;7355121;19;20109;-66
2023/07/29 10:43:30;;;;;;;3.67;0.40;;;;;;;22.22;67.56;100146.78;7358960;19;20022;-67
2023/07/29 10:46:14;;;;;;;4.78;0.40;;;;;;;22.27;64.71;100162.13;7362274;19;21773;-71
2023/07/29 10:48:44;;;;;;;4.25;0.47;;;;;;;22.29;63.34;100154.66;7368243;19;20014;-67
2023/07/29 10:51:30;;;;;;;2.88;0.50;;;;;;;22.34;63.28;100152.88;7366659;19;20015;-67
2023/07/29 10:54:00;;;;;;;2.50;0.40;;;;;;;22.42;62.89;100146.25;7363284;19;20037;-66
2023/07/29 10:56:31;;;;;;;2.67;0.60;;;;;;;22.47;63.55;100152.50;7365324;19;20022;-65
2023/07/29 10:59:19;;;;;;;2.45;0.40;;;;;;;22.54;63.25;100160.38;7364753;19;20444;-66
2023/07/29 11:01:56;;;;;;;3.78;0.38;;;;;;;22.59;61.50;100152.41;7368061;19;20022;-67
2023/07/29 11:04:27;;;;;;;2.15;0.40;;;;;;;22.61;62.31;100151.09;7356715;19;20098;-66
2023/07/29 11:07:04;;;;;;;2.13;0.40;;;;;;;22.66;62.18;100154.88;7363155;19;20062;-67
2023/07/29 11:09:53;;;;;;;3.47;0.80;;;;;;;22.61;61.34;100151.09;7359824;19;20082;-67
2023/07/29 11:12:47;;;;;;;4.00;0.45;;;;;;;22.55;61.66;100151.28;7364741;19;20021;-66
2023/07/29 11:15:14;;;;;;;3.53;0.50;;;;;;;22.47;60.65;100154.38;7364895;19;20023;-67
2023/07/29 11:17:44;;;;;;;2.42;0.43;;;;;;;22.39;62.40;100160.19;7365551;19;20110;-67
2023/07/29 11:20:12;;;;;;;2.03;0.52;;;;;;;22.33;64.03;100156.59;7364842;19;20062;-66
2023/07/29 11:22:41;;;;;;;4.05;0.52;;;;;;;22.30;63.42;100157.09;7367463;19;20093;-68
2023/07/29 11:25:11;;;;;;;3.08;0.40;;;;;;;22.28;61.67;100156.53;7359058;19;20022;-67
2023/07/29 11:27:39;;;;;;;2.22;0.50;;;;;;;22.23;61.12;100164.50;7365450;19;20014;-66
2023/07/29 11:30:08;;;;;;;4.85;0.60;;;;;;;22.22;61.69;100162.88;7358019;19;20035;-66
2023/07/29 11:32:36;;;;;;;1.55;0.45;;;;;;;22.21;61.43;100169.28;7365145;19;20030;-66